sensor_id;sensor_type;location;lat;lon;timestamp;P1;durP1;ratioP1;P2;durP2;ratioP2
3081;SDS011;1551;51.046;7.010;2022-08-01T00:00:15;3.50;;;2.10;;
3081;SDS011;1551;51.046;7.010;2022-08-01T00:03:04;3.20;;;2.30;;
3081;SDS011;1551;51.046;7.010;2022-08-01T00:05:53;2.80;;;2.20;;
3081;SDS011;1551;51.046;7.010;2022-08-01T00:08:42;3.22;;;1.80;;
3081;SDS011;1551;51.046;7.010;2022-08-01T00:11:31;3.05;;;2.40;;
3081;SDS011;1551;51.046;7.010;2022-08-01T00:14:20;4.53;;;2.50;;
3081;SDS011;1551;51.046;7.010;2022-08-01T00:17:09;2.90;;;2.00;;
3081;SDS011;1551;51.046;7.010;2022-08-01T00:19:58;3.53;;;2.20;;
3081;SDS011;1551;51.046;7.010;2022-08-01T00:22:47;3.13;;;1.90;;
3081;SDS011;1551;51.046;7.010;2022-08-01T00:25:36;3.58;;;2.15;;
3081;SDS011;1551;51.046;7.010;2022-08-01T00:28:25;3.20;;;1.88;;
3081;SDS011;1551;51.046;7.010;2022-08-01T00:31:14;3.05;;;2.00;;
3081;SDS011;1551;51.046;7.010;2022-08-01T00:34:03;2.30;;;1.70;;
3081;SDS011;1551;51.046;7.010;2022-08-01T00:36:52;3.40;;;2.00;;
3081;SDS011;1551;51.046;7.010;2022-08-01T00:39:40;4.20;;;1.80;;
3081;SDS011;1551;51.046;7.010;2022-08-01T00:42:29;3.30;;;1.70;;
3081;SDS011;1551;51.046;7.010;2022-08-01T00:45:18;3.13;;;1.60;;
3081;SDS011;1551;51.046;7.010;2022-08-01T00:48:08;2.53;;;1.63;;
3081;SDS011;1551;51.046;7.010;2022-08-01T00:50:57;4.40;;;1.98;;
3081;SDS011;1551;51.046;7.010;2022-08-01T00:53:46;4.80;;;1.70;;
3081;SDS011;1551;51.046;7.010;2022-08-01T00:56:35;2.90;;;1.90;;
3081;SDS011;1551;51.046;7.010;2022-08-01T00:59:24;2.70;;;1.80;;
3081;SDS011;1551;51.046;7.010;2022-08-01T01:02:14;2.70;;;2.10;;
3081;SDS011;1551;51.046;7.010;2022-08-01T01:05:03;3.90;;;1.90;;
3081;SDS011;1551;51.046;7.010;2022-08-01T01:07:56;3.20;;;2.10;;
3081;SDS011;1551;51.046;7.010;2022-08-01T01:10:57;3.70;;;2.00;;
3081;SDS011;1551;51.046;7.010;2022-08-01T01:13:54;4.18;;;2.40;;
3081;SDS011;1551;51.046;7.010;2022-08-01T01:16:52;3.03;;;2.03;;
3081;SDS011;1551;51.046;7.010;2022-08-01T01:19:45;2.75;;;2.05;;
3081;SDS011;1551;51.046;7.010;2022-08-01T01:22:46;3.90;;;2.20;;
3081;SDS011;1551;51.046;7.010;2022-08-01T01:29:15;3.95;;;1.90;;
3081;SDS011;1551;51.046;7.010;2022-08-01T01:32:07;3.65;;;2.22;;
3081;SDS011;1551;51.046;7.010;2022-08-01T01:35:09;2.35;;;1.70;;
3081;SDS011;1551;51.046;7.010;2022-08-01T01:38:09;3.00;;;2.40;;
3081;SDS011;1551;51.046;7.010;2022-08-01T01:41:03;2.92;;;2.20;;
3081;SDS011;1551;51.046;7.010;2022-08-01T01:43:53;2.80;;;2.50;;
3081;SDS011;1551;51.046;7.010;2022-08-01T01:46:43;3.13;;;2.30;;
3081;SDS011;1551;51.046;7.010;2022-08-01T01:49:33;3.25;;;2.55;;
3081;SDS011;1551;51.046;7.010;2022-08-01T01:52:22;3.70;;;2.53;;
3081;SDS011;1551;51.046;7.010;2022-08-01T01:55:13;3.90;;;2.95;;
3081;SDS011;1551;51.046;7.010;2022-08-01T01:58:04;5.60;;;2.83;;
3081;SDS011;1551;51.046;7.010;2022-08-01T02:00:56;5.97;;;3.17;;
3081;SDS011;1551;51.046;7.010;2022-08-01T02:03:47;3.40;;;2.70;;
3081;SDS011;1551;51.046;7.010;2022-08-01T02:06:38;3.58;;;2.67;;
3081;SDS011;1551;51.046;7.010;2022-08-01T02:09:28;4.60;;;2.80;;
3081;SDS011;1551;51.046;7.010;2022-08-01T02:12:19;3.58;;;2.60;;
3081;SDS011;1551;51.046;7.010;2022-08-01T02:15:10;4.78;;;2.63;;
3081;SDS011;1551;51.046;7.010;2022-08-01T02:18:01;3.13;;;2.40;;
3081;SDS011;1551;51.046;7.010;2022-08-01T02:20:51;3.92;;;2.40;;
3081;SDS011;1551;51.046;7.010;2022-08-01T02:23:43;4.53;;;2.40;;
3081;SDS011;1551;51.046;7.010;2022-08-01T02:26:32;4.90;;;2.58;;
3081;SDS011;1551;51.046;7.010;2022-08-01T02:29:24;3.20;;;2.15;;
3081;SDS011;1551;51.046;7.010;2022-08-01T02:32:31;3.25;;;2.00;;
3081;SDS011;1551;51.046;7.010;2022-08-01T02:35:27;3.72;;;2.30;;
3081;SDS011;1551;51.046;7.010;2022-08-01T02:38:18;3.60;;;2.08;;
3081;SDS011;1551;51.046;7.010;2022-08-01T02:41:11;3.60;;;2.20;;
3081;SDS011;1551;51.046;7.010;2022-08-01T02:44:05;3.22;;;2.20;;
3081;SDS011;1551;51.046;7.010;2022-08-01T02:46:56;2.90;;;2.35;;
3081;SDS011;1551;51.046;7.010;2022-08-01T02:49:51;4.22;;;2.28;;
3081;SDS011;1551;51.046;7.010;2022-08-01T02:52:44;4.33;;;2.50;;
3081;SDS011;1551;51.046;7.010;2022-08-01T02:55:35;3.70;;;2.50;;
3081;SDS011;1551;51.046;7.010;2022-08-01T02:58:27;4.37;;;2.50;;
3081;SDS011;1551;51.046;7.010;2022-08-01T03:01:17;4.07;;;2.30;;
3081;SDS011;1551;51.046;7.010;2022-08-01T03:04:08;4.50;;;2.20;;
3081;SDS011;1551;51.046;7.010;2022-08-01T03:06:58;3.63;;;2.60;;
3081;SDS011;1551;51.046;7.010;2022-08-01T03:09:51;4.53;;;3.15;;
3081;SDS011;1551;51.046;7.010;2022-08-01T03:12:41;4.35;;;3.03;;
3081;SDS011;1551;51.046;7.010;2022-08-01T03:15:33;5.38;;;2.70;;
3081;SDS011;1551;51.046;7.010;2022-08-01T03:18:24;3.95;;;2.92;;
3081;SDS011;1551;51.046;7.010;2022-08-01T03:21:15;4.10;;;2.95;;
3081;SDS011;1551;51.046;7.010;2022-08-01T03:24:07;4.50;;;2.60;;
3081;SDS011;1551;51.046;7.010;2022-08-01T03:26:58;5.77;;;2.70;;
3081;SDS011;1551;51.046;7.010;2022-08-01T03:29:48;5.50;;;2.87;;
3081;SDS011;1551;51.046;7.010;2022-08-01T03:32:38;5.93;;;3.17;;
3081;SDS011;1551;51.046;7.010;2022-08-01T03:35:30;3.80;;;2.90;;
3081;SDS011;1551;51.046;7.010;2022-08-01T03:38:37;5.10;;;3.50;;
3081;SDS011;1551;51.046;7.010;2022-08-01T03:41:29;4.60;;;3.22;;
3081;SDS011;1551;51.046;7.010;2022-08-01T03:44:24;5.30;;;3.40;;
3081;SDS011;1551;51.046;7.010;2022-08-01T03:47:16;4.30;;;3.15;;
3081;SDS011;1551;51.046;7.010;2022-08-01T03:50:06;4.45;;;3.50;;
3081;SDS011;1551;51.046;7.010;2022-08-01T03:52:58;5.35;;;4.18;;
3081;SDS011;1551;51.046;7.010;2022-08-01T03:55:48;4.40;;;3.38;;
3081;SDS011;1551;51.046;7.010;2022-08-01T03:58:38;6.80;;;3.72;;
3081;SDS011;1551;51.046;7.010;2022-08-01T04:01:28;4.10;;;3.30;;
3081;SDS011;1551;51.046;7.010;2022-08-01T04:04:20;5.35;;;3.90;;
3081;SDS011;1551;51.046;7.010;2022-08-01T04:07:26;4.82;;;3.70;;
3081;SDS011;1551;51.046;7.010;2022-08-01T04:10:16;7.22;;;4.00;;
3081;SDS011;1551;51.046;7.010;2022-08-01T04:13:05;5.53;;;3.40;;
3081;SDS011;1551;51.046;7.010;2022-08-01T04:15:54;5.10;;;3.50;;
3081;SDS011;1551;51.046;7.010;2022-08-01T04:18:43;4.77;;;3.93;;
3081;SDS011;1551;51.046;7.010;2022-08-01T04:21:32;3.80;;;3.40;;
3081;SDS011;1551;51.046;7.010;2022-08-01T04:24:23;4.80;;;4.15;;
3081;SDS011;1551;51.046;7.010;2022-08-01T04:27:15;6.15;;;5.50;;
3081;SDS011;1551;51.046;7.010;2022-08-01T04:30:08;9.57;;;5.70;;
3081;SDS011;1551;51.046;7.010;2022-08-01T04:32:59;6.28;;;5.45;;
3081;SDS011;1551;51.046;7.010;2022-08-01T04:35:49;9.38;;;6.40;;
3081;SDS011;1551;51.046;7.010;2022-08-01T04:38:42;10.15;;;7.60;;
3081;SDS011;1551;51.046;7.010;2022-08-01T04:41:34;9.38;;;6.70;;
3081;SDS011;1551;51.046;7.010;2022-08-01T04:44:25;9.93;;;6.85;;
3081;SDS011;1551;51.046;7.010;2022-08-01T04:47:16;6.30;;;5.70;;
3081;SDS011;1551;51.046;7.010;2022-08-01T04:50:06;5.83;;;5.03;;
3081;SDS011;1551;51.046;7.010;2022-08-01T04:52:56;6.50;;;5.32;;
3081;SDS011;1551;51.046;7.010;2022-08-01T04:55:45;7.30;;;6.05;;
3081;SDS011;1551;51.046;7.010;2022-08-01T04:58:34;7.80;;;5.43;;
3081;SDS011;1551;51.046;7.010;2022-08-01T05:01:23;9.10;;;6.20;;
3081;SDS011;1551;51.046;7.010;2022-08-01T05:04:12;9.27;;;6.70;;
3081;SDS011;1551;51.046;7.010;2022-08-01T05:07:01;8.10;;;5.75;;
3081;SDS011;1551;51.046;7.010;2022-08-01T05:09:51;5.05;;;4.15;;
3081;SDS011;1551;51.046;7.010;2022-08-01T05:12:40;7.85;;;4.70;;
3081;SDS011;1551;51.046;7.010;2022-08-01T05:15:29;7.30;;;4.70;;
3081;SDS011;1551;51.046;7.010;2022-08-01T05:18:19;7.57;;;5.03;;
3081;SDS011;1551;51.046;7.010;2022-08-01T05:21:08;9.17;;;6.60;;
3081;SDS011;1551;51.046;7.010;2022-08-01T05:23:56;10.20;;;7.80;;
3081;SDS011;1551;51.046;7.010;2022-08-01T05:26:46;9.68;;;6.15;;
3081;SDS011;1551;51.046;7.010;2022-08-01T05:29:37;8.18;;;7.38;;
3081;SDS011;1551;51.046;7.010;2022-08-01T05:32:27;9.73;;;6.60;;
3081;SDS011;1551;51.046;7.010;2022-08-01T05:35:18;9.83;;;6.67;;
3081;SDS011;1551;51.046;7.010;2022-08-01T05:38:07;8.48;;;7.50;;
3081;SDS011;1551;51.046;7.010;2022-08-01T05:40:56;9.98;;;7.90;;
3081;SDS011;1551;51.046;7.010;2022-08-01T05:43:44;9.95;;;7.78;;
3081;SDS011;1551;51.046;7.010;2022-08-01T05:46:34;8.93;;;7.03;;
3081;SDS011;1551;51.046;7.010;2022-08-01T05:49:24;6.57;;;5.72;;
3081;SDS011;1551;51.046;7.010;2022-08-01T05:52:13;7.70;;;6.80;;
3081;SDS011;1551;51.046;7.010;2022-08-01T05:55:03;9.07;;;7.00;;
3081;SDS011;1551;51.046;7.010;2022-08-01T05:57:53;10.15;;;6.45;;
3081;SDS011;1551;51.046;7.010;2022-08-01T06:00:42;7.50;;;6.78;;
3081;SDS011;1551;51.046;7.010;2022-08-01T06:03:31;9.63;;;6.97;;
3081;SDS011;1551;51.046;7.010;2022-08-01T06:06:22;9.50;;;7.50;;
3081;SDS011;1551;51.046;7.010;2022-08-01T06:09:11;8.95;;;7.28;;
3081;SDS011;1551;51.046;7.010;2022-08-01T06:12:00;9.32;;;7.00;;
3081;SDS011;1551;51.046;7.010;2022-08-01T06:14:49;7.07;;;6.38;;
3081;SDS011;1551;51.046;7.010;2022-08-01T06:17:37;8.25;;;7.35;;
3081;SDS011;1551;51.046;7.010;2022-08-01T06:20:27;7.20;;;6.03;;
3081;SDS011;1551;51.046;7.010;2022-08-01T06:23:16;9.73;;;6.77;;
3081;SDS011;1551;51.046;7.010;2022-08-01T06:26:06;10.27;;;7.72;;
3081;SDS011;1551;51.046;7.010;2022-08-01T06:28:55;8.50;;;7.70;;
3081;SDS011;1551;51.046;7.010;2022-08-01T06:31:44;9.77;;;8.77;;
3081;SDS011;1551;51.046;7.010;2022-08-01T06:34:33;10.00;;;8.55;;
3081;SDS011;1551;51.046;7.010;2022-08-01T06:37:22;9.88;;;7.85;;
3081;SDS011;1551;51.046;7.010;2022-08-01T06:40:11;8.50;;;7.38;;
3081;SDS011;1551;51.046;7.010;2022-08-01T06:43:00;7.83;;;7.03;;
3081;SDS011;1551;51.046;7.010;2022-08-01T06:45:49;6.70;;;6.10;;
3081;SDS011;1551;51.046;7.010;2022-08-01T06:48:38;8.77;;;7.50;;
3081;SDS011;1551;51.046;7.010;2022-08-01T06:51:27;9.10;;;8.30;;
3081;SDS011;1551;51.046;7.010;2022-08-01T06:54:17;10.93;;;8.98;;
3081;SDS011;1551;51.046;7.010;2022-08-01T06:57:06;8.50;;;7.60;;
3081;SDS011;1551;51.046;7.010;2022-08-01T06:59:55;9.68;;;8.68;;
3081;SDS011;1551;51.046;7.010;2022-08-01T07:02:44;7.90;;;7.10;;
3081;SDS011;1551;51.046;7.010;2022-08-01T07:05:34;9.87;;;8.97;;
3081;SDS011;1551;51.046;7.010;2022-08-01T07:08:23;9.45;;;8.40;;
3081;SDS011;1551;51.046;7.010;2022-08-01T07:11:12;10.10;;;9.10;;
3081;SDS011;1551;51.046;7.010;2022-08-01T07:14:01;7.53;;;6.60;;
3081;SDS011;1551;51.046;7.010;2022-08-01T07:16:50;9.38;;;8.48;;
3081;SDS011;1551;51.046;7.010;2022-08-01T07:19:39;8.10;;;7.35;;
3081;SDS011;1551;51.046;7.010;2022-08-01T07:22:28;8.15;;;7.35;;
3081;SDS011;1551;51.046;7.010;2022-08-01T07:25:17;8.30;;;6.78;;
3081;SDS011;1551;51.046;7.010;2022-08-01T07:28:06;9.07;;;8.27;;
3081;SDS011;1551;51.046;7.010;2022-08-01T07:30:55;10.32;;;9.30;;
3081;SDS011;1551;51.046;7.010;2022-08-01T07:33:44;9.23;;;8.40;;
3081;SDS011;1551;51.046;7.010;2022-08-01T07:36:34;9.93;;;8.65;;
3081;SDS011;1551;51.046;7.010;2022-08-01T07:39:23;9.48;;;8.20;;
3081;SDS011;1551;51.046;7.010;2022-08-01T07:42:12;7.78;;;7.05;;
3081;SDS011;1551;51.046;7.010;2022-08-01T07:45:01;7.72;;;6.93;;
3081;SDS011;1551;51.046;7.010;2022-08-01T07:47:49;7.57;;;6.80;;
3081;SDS011;1551;51.046;7.010;2022-08-01T07:50:38;7.47;;;6.70;;
3081;SDS011;1551;51.046;7.010;2022-08-01T07:53:27;7.30;;;6.60;;
3081;SDS011;1551;51.046;7.010;2022-08-01T07:56:17;9.55;;;6.47;;
3081;SDS011;1551;51.046;7.010;2022-08-01T07:59:06;7.38;;;6.53;;
3081;SDS011;1551;51.046;7.010;2022-08-01T08:01:55;8.98;;;6.70;;
3081;SDS011;1551;51.046;7.010;2022-08-01T08:04:44;7.13;;;5.80;;
3081;SDS011;1551;51.046;7.010;2022-08-01T08:07:33;6.50;;;5.50;;
3081;SDS011;1551;51.046;7.010;2022-08-01T08:10:22;6.30;;;5.70;;
3081;SDS011;1551;51.046;7.010;2022-08-01T08:13:11;6.80;;;5.00;;
3081;SDS011;1551;51.046;7.010;2022-08-01T08:16:00;9.63;;;6.72;;
3081;SDS011;1551;51.046;7.010;2022-08-01T08:18:49;7.03;;;5.60;;
3081;SDS011;1551;51.046;7.010;2022-08-01T08:21:38;6.95;;;4.60;;
3081;SDS011;1551;51.046;7.010;2022-08-01T08:24:27;6.40;;;4.40;;
3081;SDS011;1551;51.046;7.010;2022-08-01T08:27:16;4.00;;;3.60;;
3081;SDS011;1551;51.046;7.010;2022-08-01T08:30:05;4.55;;;4.10;;
3081;SDS011;1551;51.046;7.010;2022-08-01T08:32:59;4.63;;;4.20;;
3081;SDS011;1551;51.046;7.010;2022-08-01T08:35:48;5.03;;;3.95;;
3081;SDS011;1551;51.046;7.010;2022-08-01T08:38:37;4.97;;;4.10;;
3081;SDS011;1551;51.046;7.010;2022-08-01T08:41:28;6.50;;;3.70;;
3081;SDS011;1551;51.046;7.010;2022-08-01T08:44:18;4.95;;;4.03;;
3081;SDS011;1551;51.046;7.010;2022-08-01T08:47:09;5.57;;;3.70;;
3081;SDS011;1551;51.046;7.010;2022-08-01T08:50:00;4.75;;;4.00;;
3081;SDS011;1551;51.046;7.010;2022-08-01T08:52:50;4.65;;;4.15;;
3081;SDS011;1551;51.046;7.010;2022-08-01T08:55:43;5.22;;;4.30;;
3081;SDS011;1551;51.046;7.010;2022-08-01T08:58:33;4.80;;;3.35;;
3081;SDS011;1551;51.046;7.010;2022-08-01T09:01:26;4.72;;;3.60;;
3081;SDS011;1551;51.046;7.010;2022-08-01T09:04:15;5.40;;;4.20;;
3081;SDS011;1551;51.046;7.010;2022-08-01T09:07:04;4.90;;;3.90;;
3081;SDS011;1551;51.046;7.010;2022-08-01T09:09:54;4.15;;;3.55;;
3081;SDS011;1551;51.046;7.010;2022-08-01T09:15:53;6.28;;;4.10;;
3081;SDS011;1551;51.046;7.010;2022-08-01T09:18:43;4.20;;;2.90;;
3081;SDS011;1551;51.046;7.010;2022-08-01T09:21:33;3.38;;;2.70;;
3081;SDS011;1551;51.046;7.010;2022-08-01T09:24:24;5.10;;;3.60;;
3081;SDS011;1551;51.046;7.010;2022-08-01T09:27:18;3.75;;;2.95;;
3081;SDS011;1551;51.046;7.010;2022-08-01T09:30:14;4.78;;;4.15;;
3081;SDS011;1551;51.046;7.010;2022-08-01T09:33:05;3.90;;;3.50;;
3081;SDS011;1551;51.046;7.010;2022-08-01T09:35:54;4.93;;;3.33;;
3081;SDS011;1551;51.046;7.010;2022-08-01T09:38:45;4.07;;;3.30;;
3081;SDS011;1551;51.046;7.010;2022-08-01T09:41:34;4.32;;;3.10;;
3081;SDS011;1551;51.046;7.010;2022-08-01T09:44:40;5.15;;;3.20;;
3081;SDS011;1551;51.046;7.010;2022-08-01T09:47:37;3.53;;;3.20;;
3081;SDS011;1551;51.046;7.010;2022-08-01T09:50:28;5.40;;;3.40;;
3081;SDS011;1551;51.046;7.010;2022-08-01T09:53:39;4.47;;;3.45;;
3081;SDS011;1551;51.046;7.010;2022-08-01T09:56:28;4.50;;;3.13;;
3081;SDS011;1551;51.046;7.010;2022-08-01T09:59:33;4.22;;;3.53;;
3081;SDS011;1551;51.046;7.010;2022-08-01T10:02:31;4.10;;;3.10;;
3081;SDS011;1551;51.046;7.010;2022-08-01T10:05:29;3.80;;;2.60;;
3081;SDS011;1551;51.046;7.010;2022-08-01T10:08:20;4.50;;;3.90;;
3081;SDS011;1551;51.046;7.010;2022-08-01T10:11:11;3.80;;;3.40;;
3081;SDS011;1551;51.046;7.010;2022-08-01T10:14:01;3.72;;;3.33;;
3081;SDS011;1551;51.046;7.010;2022-08-01T10:16:52;4.00;;;3.47;;
3081;SDS011;1551;51.046;7.010;2022-08-01T10:19:44;4.93;;;3.70;;
3081;SDS011;1551;51.046;7.010;2022-08-01T10:22:33;3.93;;;3.53;;
3081;SDS011;1551;51.046;7.010;2022-08-01T10:25:23;4.97;;;3.97;;
3081;SDS011;1551;51.046;7.010;2022-08-01T10:28:16;3.90;;;3.50;;
3081;SDS011;1551;51.046;7.010;2022-08-01T10:31:09;3.10;;;2.70;;
3081;SDS011;1551;51.046;7.010;2022-08-01T10:33:58;4.93;;;3.03;;
3081;SDS011;1551;51.046;7.010;2022-08-01T10:36:48;4.57;;;3.35;;
3081;SDS011;1551;51.046;7.010;2022-08-01T10:39:37;3.10;;;2.60;;
3081;SDS011;1551;51.046;7.010;2022-08-01T10:42:27;3.20;;;2.53;;
3081;SDS011;1551;51.046;7.010;2022-08-01T10:45:17;3.40;;;2.80;;
3081;SDS011;1551;51.046;7.010;2022-08-01T10:48:12;4.32;;;3.13;;
3081;SDS011;1551;51.046;7.010;2022-08-01T10:51:07;4.10;;;3.00;;
3081;SDS011;1551;51.046;7.010;2022-08-01T10:53:56;4.30;;;2.78;;
3081;SDS011;1551;51.046;7.010;2022-08-01T10:56:47;3.65;;;2.88;;
3081;SDS011;1551;51.046;7.010;2022-08-01T10:59:47;3.03;;;2.70;;
3081;SDS011;1551;51.046;7.010;2022-08-01T11:02:40;2.70;;;2.50;;
3081;SDS011;1551;51.046;7.010;2022-08-01T11:05:33;3.58;;;2.90;;
3081;SDS011;1551;51.046;7.010;2022-08-01T11:08:23;4.22;;;2.78;;
3081;SDS011;1551;51.046;7.010;2022-08-01T11:11:14;3.50;;;3.00;;
3081;SDS011;1551;51.046;7.010;2022-08-01T11:14:03;3.50;;;2.80;;
3081;SDS011;1551;51.046;7.010;2022-08-01T11:20:22;3.88;;;2.58;;
3081;SDS011;1551;51.046;7.010;2022-08-01T11:23:16;3.40;;;2.63;;
3081;SDS011;1551;51.046;7.010;2022-08-01T11:26:07;3.60;;;3.10;;
3081;SDS011;1551;51.046;7.010;2022-08-01T11:29:10;2.92;;;2.55;;
3081;SDS011;1551;51.046;7.010;2022-08-01T11:32:23;4.63;;;3.00;;
3081;SDS011;1551;51.046;7.010;2022-08-01T11:35:14;3.70;;;2.60;;
3081;SDS011;1551;51.046;7.010;2022-08-01T11:38:23;5.07;;;2.80;;
3081;SDS011;1551;51.046;7.010;2022-08-01T11:41:13;3.30;;;3.00;;
3081;SDS011;1551;51.046;7.010;2022-08-01T11:44:16;3.00;;;2.70;;
3081;SDS011;1551;51.046;7.010;2022-08-01T11:47:08;3.00;;;2.58;;
3081;SDS011;1551;51.046;7.010;2022-08-01T11:49:58;2.83;;;2.35;;
3081;SDS011;1551;51.046;7.010;2022-08-01T11:52:48;3.00;;;2.35;;
3081;SDS011;1551;51.046;7.010;2022-08-01T11:55:47;3.30;;;2.70;;
3081;SDS011;1551;51.046;7.010;2022-08-01T11:58:40;3.60;;;2.10;;
3081;SDS011;1551;51.046;7.010;2022-08-01T12:01:29;2.40;;;1.90;;
3081;SDS011;1551;51.046;7.010;2022-08-01T12:04:18;3.20;;;2.20;;
3081;SDS011;1551;51.046;7.010;2022-08-01T12:07:11;2.20;;;1.80;;
3081;SDS011;1551;51.046;7.010;2022-08-01T12:10:09;2.30;;;1.80;;
3081;SDS011;1551;51.046;7.010;2022-08-01T12:13:00;2.80;;;2.00;;
3081;SDS011;1551;51.046;7.010;2022-08-01T12:15:51;2.60;;;1.88;;
3081;SDS011;1551;51.046;7.010;2022-08-01T12:18:40;2.10;;;1.90;;
3081;SDS011;1551;51.046;7.010;2022-08-01T12:21:30;1.95;;;1.65;;
3081;SDS011;1551;51.046;7.010;2022-08-01T12:24:22;3.90;;;2.00;;
3081;SDS011;1551;51.046;7.010;2022-08-01T12:27:11;3.10;;;1.73;;
3081;SDS011;1551;51.046;7.010;2022-08-01T12:30:17;2.50;;;1.95;;
3081;SDS011;1551;51.046;7.010;2022-08-01T12:33:11;2.42;;;1.83;;
3081;SDS011;1551;51.046;7.010;2022-08-01T12:36:06;2.90;;;1.60;;
3081;SDS011;1551;51.046;7.010;2022-08-01T12:38:55;2.50;;;1.50;;
3081;SDS011;1551;51.046;7.010;2022-08-01T12:41:46;2.60;;;1.80;;
3081;SDS011;1551;51.046;7.010;2022-08-01T12:44:35;2.00;;;1.50;;
3081;SDS011;1551;51.046;7.010;2022-08-01T12:47:24;3.00;;;1.90;;
3081;SDS011;1551;51.046;7.010;2022-08-01T12:50:18;2.15;;;1.70;;
3081;SDS011;1551;51.046;7.010;2022-08-01T12:53:09;2.20;;;1.40;;
3081;SDS011;1551;51.046;7.010;2022-08-01T12:55:59;2.70;;;1.50;;
3081;SDS011;1551;51.046;7.010;2022-08-01T12:58:48;2.42;;;1.50;;
3081;SDS011;1551;51.046;7.010;2022-08-01T13:01:37;2.57;;;1.53;;
3081;SDS011;1551;51.046;7.010;2022-08-01T13:04:28;2.60;;;1.58;;
3081;SDS011;1551;51.046;7.010;2022-08-01T13:07:17;2.35;;;1.35;;
3081;SDS011;1551;51.046;7.010;2022-08-01T13:10:06;2.13;;;1.20;;
3081;SDS011;1551;51.046;7.010;2022-08-01T13:12:57;1.95;;;1.10;;
3081;SDS011;1551;51.046;7.010;2022-08-01T13:15:47;3.13;;;1.30;;
3081;SDS011;1551;51.046;7.010;2022-08-01T13:18:36;1.50;;;1.02;;
3081;SDS011;1551;51.046;7.010;2022-08-01T13:21:26;2.10;;;1.20;;
3081;SDS011;1551;51.046;7.010;2022-08-01T13:24:22;1.60;;;1.00;;
3081;SDS011;1551;51.046;7.010;2022-08-01T13:27:21;1.77;;;1.20;;
3081;SDS011;1551;51.046;7.010;2022-08-01T13:30:19;1.80;;;1.40;;
3081;SDS011;1551;51.046;7.010;2022-08-01T13:33:08;2.58;;;1.30;;
3081;SDS011;1551;51.046;7.010;2022-08-01T13:35:57;2.25;;;1.10;;
3081;SDS011;1551;51.046;7.010;2022-08-01T13:38:46;2.03;;;1.30;;
3081;SDS011;1551;51.046;7.010;2022-08-01T13:41:54;3.00;;;1.30;;
3081;SDS011;1551;51.046;7.010;2022-08-01T13:44:43;1.83;;;0.90;;
3081;SDS011;1551;51.046;7.010;2022-08-01T13:47:35;3.42;;;1.20;;
3081;SDS011;1551;51.046;7.010;2022-08-01T13:50:24;2.00;;;1.40;;
3081;SDS011;1551;51.046;7.010;2022-08-01T13:53:13;2.70;;;1.10;;
3081;SDS011;1551;51.046;7.010;2022-08-01T13:56:02;3.20;;;1.20;;
3081;SDS011;1551;51.046;7.010;2022-08-01T13:58:52;3.50;;;1.30;;
3081;SDS011;1551;51.046;7.010;2022-08-01T14:01:41;2.20;;;1.20;;
3081;SDS011;1551;51.046;7.010;2022-08-01T14:04:30;2.00;;;1.20;;
3081;SDS011;1551;51.046;7.010;2022-08-01T14:07:19;2.00;;;1.10;;
3081;SDS011;1551;51.046;7.010;2022-08-01T14:10:09;2.20;;;1.30;;
3081;SDS011;1551;51.046;7.010;2022-08-01T14:12:58;1.63;;;1.15;;
3081;SDS011;1551;51.046;7.010;2022-08-01T14:15:47;1.90;;;1.20;;
3081;SDS011;1551;51.046;7.010;2022-08-01T14:18:36;1.80;;;1.30;;
3081;SDS011;1551;51.046;7.010;2022-08-01T14:21:25;3.50;;;1.45;;
3081;SDS011;1551;51.046;7.010;2022-08-01T14:24:14;2.00;;;0.90;;
3081;SDS011;1551;51.046;7.010;2022-08-01T14:27:03;3.33;;;1.30;;
3081;SDS011;1551;51.046;7.010;2022-08-01T14:29:52;1.95;;;1.40;;
3081;SDS011;1551;51.046;7.010;2022-08-01T14:32:41;2.40;;;1.40;;
3081;SDS011;1551;51.046;7.010;2022-08-01T14:35:29;2.40;;;1.67;;
3081;SDS011;1551;51.046;7.010;2022-08-01T14:38:18;4.82;;;1.27;;
3081;SDS011;1551;51.046;7.010;2022-08-01T14:41:07;2.57;;;1.60;;
3081;SDS011;1551;51.046;7.010;2022-08-01T14:43:57;2.40;;;1.30;;
3081;SDS011;1551;51.046;7.010;2022-08-01T14:46:46;1.80;;;1.20;;
3081;SDS011;1551;51.046;7.010;2022-08-01T14:49:36;2.40;;;1.40;;
3081;SDS011;1551;51.046;7.010;2022-08-01T14:52:25;1.85;;;1.30;;
3081;SDS011;1551;51.046;7.010;2022-08-01T14:55:14;2.92;;;1.23;;
3081;SDS011;1551;51.046;7.010;2022-08-01T14:58:03;2.40;;;1.40;;
3081;SDS011;1551;51.046;7.010;2022-08-01T15:00:52;1.70;;;1.10;;
3081;SDS011;1551;51.046;7.010;2022-08-01T15:03:42;1.60;;;1.20;;
3081;SDS011;1551;51.046;7.010;2022-08-01T15:06:31;3.05;;;1.30;;
3081;SDS011;1551;51.046;7.010;2022-08-01T15:09:20;1.80;;;1.25;;
3081;SDS011;1551;51.046;7.010;2022-08-01T15:12:12;4.30;;;1.20;;
3081;SDS011;1551;51.046;7.010;2022-08-01T15:15:01;1.70;;;1.30;;
3081;SDS011;1551;51.046;7.010;2022-08-01T15:17:50;3.17;;;1.65;;
3081;SDS011;1551;51.046;7.010;2022-08-01T15:20:41;1.80;;;1.20;;
3081;SDS011;1551;51.046;7.010;2022-08-01T15:23:30;2.10;;;1.60;;
3081;SDS011;1551;51.046;7.010;2022-08-01T15:26:19;2.42;;;1.80;;
3081;SDS011;1551;51.046;7.010;2022-08-01T15:29:08;3.17;;;1.80;;
3081;SDS011;1551;51.046;7.010;2022-08-01T15:31:57;2.25;;;1.85;;
3081;SDS011;1551;51.046;7.010;2022-08-01T15:34:47;2.58;;;1.85;;
3081;SDS011;1551;51.046;7.010;2022-08-01T15:37:36;2.33;;;1.80;;
3081;SDS011;1551;51.046;7.010;2022-08-01T15:40:25;2.30;;;1.80;;
3081;SDS011;1551;51.046;7.010;2022-08-01T15:43:15;3.15;;;2.00;;
3081;SDS011;1551;51.046;7.010;2022-08-01T15:46:04;2.10;;;1.80;;
3081;SDS011;1551;51.046;7.010;2022-08-01T15:48:52;2.10;;;1.70;;
3081;SDS011;1551;51.046;7.010;2022-08-01T15:51:42;2.17;;;1.70;;
3081;SDS011;1551;51.046;7.010;2022-08-01T15:54:32;2.13;;;1.90;;
3081;SDS011;1551;51.046;7.010;2022-08-01T15:57:21;2.70;;;2.20;;
3081;SDS011;1551;51.046;7.010;2022-08-01T16:00:11;2.22;;;2.03;;
3081;SDS011;1551;51.046;7.010;2022-08-01T16:03:01;3.30;;;1.90;;
3081;SDS011;1551;51.046;7.010;2022-08-01T16:05:50;2.70;;;1.88;;
3081;SDS011;1551;51.046;7.010;2022-08-01T16:08:38;3.40;;;2.10;;
3081;SDS011;1551;51.046;7.010;2022-08-01T16:11:27;3.55;;;2.20;;
3081;SDS011;1551;51.046;7.010;2022-08-01T16:14:16;2.10;;;1.70;;
3081;SDS011;1551;51.046;7.010;2022-08-01T16:17:05;2.40;;;2.10;;
3081;SDS011;1551;51.046;7.010;2022-08-01T16:19:54;2.73;;;2.07;;
3081;SDS011;1551;51.046;7.010;2022-08-01T16:22:43;2.58;;;1.95;;
3081;SDS011;1551;51.046;7.010;2022-08-01T16:25:32;2.40;;;2.20;;
3081;SDS011;1551;51.046;7.010;2022-08-01T16:28:22;2.50;;;2.00;;
3081;SDS011;1551;51.046;7.010;2022-08-01T16:31:11;2.30;;;2.05;;
3081;SDS011;1551;51.046;7.010;2022-08-01T16:34:00;2.40;;;2.20;;
3081;SDS011;1551;51.046;7.010;2022-08-01T16:36:49;3.00;;;2.70;;
3081;SDS011;1551;51.046;7.010;2022-08-01T16:39:40;2.33;;;2.13;;
3081;SDS011;1551;51.046;7.010;2022-08-01T16:42:29;2.90;;;2.50;;
3081;SDS011;1551;51.046;7.010;2022-08-01T16:45:18;3.53;;;2.60;;
3081;SDS011;1551;51.046;7.010;2022-08-01T16:48:09;2.55;;;2.10;;
3081;SDS011;1551;51.046;7.010;2022-08-01T16:50:58;3.40;;;2.80;;
3081;SDS011;1551;51.046;7.010;2022-08-01T16:53:48;3.80;;;2.90;;
3081;SDS011;1551;51.046;7.010;2022-08-01T16:56:37;2.70;;;2.50;;
3081;SDS011;1551;51.046;7.010;2022-08-01T16:59:26;3.05;;;2.75;;
3081;SDS011;1551;51.046;7.010;2022-08-01T17:02:15;3.65;;;3.00;;
3081;SDS011;1551;51.046;7.010;2022-08-01T17:05:04;3.50;;;3.20;;
3081;SDS011;1551;51.046;7.010;2022-08-01T17:07:54;3.80;;;3.08;;
3081;SDS011;1551;51.046;7.010;2022-08-01T17:10:43;3.60;;;3.30;;
3081;SDS011;1551;51.046;7.010;2022-08-01T17:13:32;3.20;;;2.90;;
3081;SDS011;1551;51.046;7.010;2022-08-01T17:16:21;3.00;;;2.80;;
3081;SDS011;1551;51.046;7.010;2022-08-01T17:19:12;2.83;;;2.63;;
3081;SDS011;1551;51.046;7.010;2022-08-01T17:22:01;2.70;;;2.50;;
3081;SDS011;1551;51.046;7.010;2022-08-01T17:24:50;6.10;;;2.90;;
3081;SDS011;1551;51.046;7.010;2022-08-01T17:27:40;3.20;;;2.65;;
3081;SDS011;1551;51.046;7.010;2022-08-01T17:30:29;4.05;;;2.70;;
3081;SDS011;1551;51.046;7.010;2022-08-01T17:33:18;3.10;;;2.38;;
3081;SDS011;1551;51.046;7.010;2022-08-01T17:36:07;3.55;;;2.58;;
3081;SDS011;1551;51.046;7.010;2022-08-01T17:38:57;3.30;;;2.70;;
3081;SDS011;1551;51.046;7.010;2022-08-01T17:41:47;3.80;;;2.83;;
3081;SDS011;1551;51.046;7.010;2022-08-01T17:44:36;3.10;;;2.80;;
3081;SDS011;1551;51.046;7.010;2022-08-01T17:47:25;2.78;;;2.58;;
3081;SDS011;1551;51.046;7.010;2022-08-01T17:50:14;3.40;;;2.60;;